createdAt,value
2023-03-16T08:01:41.173Z,96160.00
2023-03-16T08:02:42.199Z,96160.00
2023-03-16T08:03:42.213Z,96164.00
2023-03-16T08:04:42.123Z,96158.00
2023-03-16T08:05:41.059Z,96158.00
2023-03-16T08:06:42.082Z,96156.00
2023-03-16T08:07:42.112Z,96158.00
2023-03-16T08:08:41.053Z,96158.00
2023-03-16T08:09:42.058Z,96158.00
2023-03-16T08:10:41.045Z,96156.00
2023-03-16T08:11:42.038Z,96158.00
2023-03-16T08:12:42.152Z,96154.00
2023-03-16T08:13:42.024Z,96152.00
2023-03-16T08:14:42.049Z,96154.00
2023-03-16T08:15:42.061Z,96154.00
2023-03-16T08:16:42.002Z,96154.00
2023-03-16T08:17:42.063Z,96154.00
2023-03-16T08:18:41.988Z,96152.00
2023-03-16T08:19:41.974Z,96152.00
2023-03-16T08:20:41.986Z,96152.00
2023-03-16T08:21:57.640Z,96148.00
2023-03-16T08:22:41.996Z,96150.00
2023-03-16T08:23:41.948Z,96148.00
2023-03-16T08:24:41.942Z,96146.00
2023-03-16T08:25:41.944Z,96142.00
2023-03-16T08:26:41.924Z,96144.00
2023-03-16T08:27:41.937Z,96142.00
2023-03-16T08:28:41.959Z,96142.00
2023-03-16T08:29:41.919Z,96142.00
2023-03-16T08:30:41.910Z,96142.00
2023-03-16T08:31:41.001Z,96144.00
2023-03-16T08:32:42.003Z,96142.00
2023-03-16T08:33:41.947Z,96144.00
2023-03-16T08:34:41.895Z,96142.00
2023-03-16T08:35:41.936Z,96141.00
2023-03-16T08:36:41.874Z,96137.00
2023-03-16T08:37:41.866Z,96139.00
2023-03-16T08:38:41.857Z,96139.00
2023-03-16T08:39:41.847Z,96137.00
2023-03-16T08:40:41.843Z,96141.00
2023-03-16T08:41:41.848Z,96144.00
2023-03-16T08:42:41.835Z,96144.00
2023-03-16T08:43:41.827Z,96144.00
2023-03-16T08:44:41.813Z,96141.00
2023-03-16T08:45:41.808Z,96142.00
2023-03-16T08:46:40.971Z,96142.00
2023-03-16T08:47:41.794Z,96139.00
2023-03-16T08:48:41.806Z,96139.00
2023-03-16T08:49:40.854Z,96141.00
2023-03-16T08:50:41.779Z,96142.00
2023-03-16T08:51:43.822Z,96142.00
2023-03-16T08:52:41.845Z,96144.00
2023-03-16T08:53:40.792Z,96141.00
2023-03-16T08:54:49.680Z,96141.00
2023-03-16T08:55:41.851Z,96137.00
2023-03-16T08:56:40.722Z,96133.00
2023-03-16T08:57:40.722Z,96133.00
2023-03-16T08:58:41.732Z,96135.00
2023-03-16T08:59:41.712Z,96133.00
2023-03-16T09:00:41.708Z,96133.00
2023-03-16T09:01:41.766Z,96135.00
2023-03-16T09:02:41.735Z,96135.00
2023-03-16T09:03:41.684Z,96135.00
2023-03-16T09:04:40.718Z,96137.00
2023-03-16T09:05:41.710Z,96142.00
2023-03-16T09:06:41.672Z,96141.00
2023-03-16T09:07:41.675Z,96139.00
2023-03-16T09:08:41.652Z,96139.00
2023-03-16T09:09:41.637Z,96142.00
2023-03-16T09:10:40.635Z,96141.00
2023-03-16T09:11:40.619Z,96137.00
2023-03-16T09:12:41.615Z,96129.00
2023-03-16T09:13:41.613Z,96125.00
2023-03-16T09:14:41.654Z,96125.00
2023-03-16T09:15:41.597Z,96127.00
2023-03-16T09:16:41.750Z,96127.00
2023-03-16T09:17:41.609Z,96127.00
2023-03-16T09:18:41.603Z,96131.00
2023-03-16T09:19:51.254Z,96133.00
2023-03-16T09:20:41.621Z,96131.00
2023-03-16T09:21:41.626Z,96131.00
2023-03-16T09:22:40.574Z,96133.00
2023-03-16T09:23:41.577Z,96131.00
2023-03-16T09:24:40.594Z,96125.00
2023-03-16T09:25:40.556Z,96125.00
2023-03-16T09:26:41.588Z,96119.00
2023-03-16T09:27:41.573Z,96121.00
2023-03-16T09:28:42.427Z,96119.00
2023-03-16T09:29:41.529Z,96121.00
2023-03-16T09:30:41.530Z,96121.00
2023-03-16T09:31:41.611Z,96123.00
2023-03-16T09:32:41.579Z,96121.00
2023-03-16T09:33:41.502Z,96123.00
2023-03-16T09:34:40.495Z,96123.00
2023-03-16T09:35:41.565Z,96119.00
2023-03-16T09:36:41.479Z,96115.00
2023-03-16T09:37:45.585Z,96117.00
2023-03-16T09:38:41.495Z,96117.00
2023-03-16T09:39:41.463Z,96113.00
2023-03-16T09:40:41.484Z,96111.00
2023-03-16T09:41:40.439Z,96109.00
2023-03-16T09:42:41.824Z,96109.00
2023-03-16T09:43:41.426Z,96107.00
2023-03-16T09:44:41.417Z,96107.00
2023-03-16T09:45:41.505Z,96109.00
2023-03-16T09:46:41.408Z,96105.00
2023-03-16T09:47:41.424Z,96107.00
2023-03-16T09:48:41.391Z,96097.00
2023-03-16T09:49:40.393Z,96097.00
2023-03-16T09:50:48.811Z,96097.00
2023-03-16T09:51:41.406Z,96097.00
2023-03-16T09:52:41.366Z,96095.00
2023-03-16T09:53:41.409Z,96097.00
2023-03-16T09:54:41.358Z,96097.00
2023-03-16T09:55:41.339Z,96097.00
2023-03-16T09:56:41.349Z,96092.00
2023-03-16T09:57:41.336Z,96092.00
2023-03-16T09:58:41.837Z,96090.00
2023-03-16T09:59:41.315Z,96094.00
2023-03-16T10:00:41.426Z,96094.00
2023-03-16T10:01:40.324Z,96092.00
2023-03-16T10:02:41.294Z,96095.00
2023-03-16T10:03:41.311Z,96095.00
2023-03-16T10:04:41.282Z,96092.00
2023-03-16T10:05:41.282Z,96092.00
2023-03-16T10:06:41.270Z,96092.00
2023-03-16T10:07:40.296Z,96088.00
2023-03-16T10:08:40.266Z,96084.00
2023-03-16T10:09:41.280Z,96088.00
2023-03-16T10:10:41.303Z,96086.00
2023-03-16T10:11:41.250Z,96082.00
2023-03-16T10:12:41.238Z,96078.00
2023-03-16T10:13:41.219Z,96082.00
2023-03-16T10:14:41.300Z,96080.00
2023-03-16T10:15:40.213Z,96076.00
2023-03-16T10:16:41.315Z,96076.00
2023-03-16T10:17:41.182Z,96074.00
2023-03-16T10:18:41.182Z,96076.00
2023-03-16T10:19:41.184Z,96076.00
2023-03-16T10:20:41.189Z,96074.00
2023-03-16T10:21:40.186Z,96072.00
2023-03-16T10:22:40.177Z,96076.00
2023-03-16T10:23:40.996Z,96074.00
2023-03-16T10:24:41.185Z,96072.00
2023-03-16T10:25:41.162Z,96072.00
2023-03-16T10:26:41.135Z,96074.00
2023-03-16T10:27:41.129Z,96072.00
2023-03-16T10:28:41.132Z,96072.00
2023-03-16T10:29:41.143Z,96070.00
2023-03-16T10:30:42.921Z,96070.00
2023-03-16T10:31:41.256Z,96068.00
2023-03-16T10:32:41.197Z,96070.00
2023-03-16T10:33:41.183Z,96066.00
2023-03-16T10:34:41.165Z,96066.00
2023-03-16T10:35:41.157Z,96062.00
2023-03-16T10:36:41.252Z,96062.00
2023-03-16T10:37:41.138Z,96064.00
2023-03-16T10:38:41.128Z,96062.00
2023-03-16T10:39:41.113Z,96058.00
2023-03-16T10:40:41.119Z,96058.00
2023-03-16T10:41:41.154Z,96056.00
2023-03-16T10:42:41.113Z,96054.00
2023-03-16T10:43:41.107Z,96054.00
2023-03-16T10:44:41.099Z,96054.00
2023-03-16T10:45:40.177Z,96054.00
2023-03-16T10:46:41.258Z,96054.00
2023-03-16T10:47:40.086Z,96054.00
2023-03-16T10:48:41.352Z,96050.00
2023-03-16T10:49:41.074Z,96050.00
2023-03-16T10:50:41.066Z,96045.00
2023-03-16T10:51:41.069Z,96050.00
2023-03-16T10:52:41.062Z,96048.00
2023-03-16T10:53:41.039Z,96050.00
2023-03-16T10:54:41.073Z,96050.00
2023-03-16T10:55:41.134Z,96047.00
2023-03-16T10:56:41.193Z,96047.00
2023-03-16T10:57:41.272Z,96048.00
2023-03-16T10:58:41.313Z,96047.00
2023-03-16T10:59:40.380Z,96048.00
2023-03-16T11:00:41.452Z,96047.00
2023-03-16T11:01:41.594Z,96045.00
2023-03-16T11:02:40.564Z,96045.00
2023-03-16T11:03:41.594Z,96041.00
2023-03-16T11:04:41.714Z,96039.00
2023-03-16T11:05:41.716Z,96037.00
2023-03-16T11:06:41.799Z,96035.00
2023-03-16T11:07:41.807Z,96035.00
2023-03-16T11:08:41.814Z,96033.00
2023-03-16T11:09:41.776Z,96033.00
2023-03-16T11:10:54.611Z,96031.00
2023-03-16T11:11:41.781Z,96031.00
2023-03-16T11:12:41.759Z,96031.00
2023-03-16T11:13:41.800Z,96029.00
2023-03-16T11:14:41.769Z,96029.00
2023-03-16T11:15:41.748Z,96025.00
2023-03-16T11:16:41.803Z,96029.00
2023-03-16T11:17:41.770Z,96023.00
2023-03-16T11:18:41.749Z,96021.00
2023-03-16T11:19:40.855Z,96021.00
2023-03-16T11:20:41.712Z,96019.00
2023-03-16T11:21:41.758Z,96019.00
2023-03-16T11:22:40.744Z,96017.00
2023-03-16T11:23:41.708Z,96013.00
2023-03-16T11:24:41.703Z,96009.00
2023-03-16T11:25:41.687Z,96009.00
2023-03-16T11:26:41.676Z,96009.00
2023-03-16T11:27:41.709Z,96009.00
2023-03-16T11:28:40.675Z,96007.00
2023-03-16T11:29:41.694Z,96007.00
2023-03-16T11:30:41.660Z,96001.00
2023-03-16T11:31:41.677Z,96001.00
2023-03-16T11:32:41.712Z,95998.00
2023-03-16T11:33:40.645Z,95996.00
2023-03-16T11:34:41.669Z,95990.00
2023-03-16T11:35:52.713Z,95992.00
2023-03-16T11:36:41.629Z,95986.00
2023-03-16T11:37:40.598Z,95980.00
2023-03-16T11:38:41.603Z,95974.00
2023-03-16T11:39:41.620Z,95976.00
2023-03-16T11:40:40.596Z,95974.00
2023-03-16T11:41:41.582Z,95972.00
2023-03-16T11:42:41.577Z,95976.00
2023-03-16T11:43:41.888Z,95968.00
2023-03-16T11:44:41.595Z,95970.00
2023-03-16T11:45:41.579Z,95966.00
2023-03-16T11:46:40.542Z,95964.00
2023-03-16T11:47:41.539Z,95964.00
2023-03-16T11:48:41.555Z,95956.00
2023-03-16T11:49:41.523Z,95954.00
2023-03-16T11:50:41.516Z,95953.00
2023-03-16T11:51:42.357Z,95951.00
2023-03-16T11:52:40.493Z,95953.00
2023-03-16T11:53:41.520Z,95951.00
2023-03-16T11:54:41.506Z,95951.00
2023-03-16T11:55:41.488Z,95949.00
2023-03-16T11:56:41.471Z,95947.00
2023-03-16T11:57:40.455Z,95945.00
2023-03-16T11:58:40.457Z,95947.00
2023-03-16T11:59:46.241Z,95939.00
2023-03-16T12:00:41.447Z,95939.00
2023-03-16T12:01:45.281Z,95937.00
2023-03-16T12:02:41.565Z,95935.00
2023-03-16T12:03:41.595Z,95933.00
2023-03-16T12:04:41.429Z,95935.00
2023-03-16T12:05:41.396Z,95929.00
2023-03-16T12:06:40.412Z,95929.00
2023-03-16T12:07:40.389Z,95927.00
2023-03-16T12:08:41.400Z,95927.00
2023-03-16T12:09:41.413Z,95927.00
2023-03-16T12:10:41.366Z,95925.00
2023-03-16T12:11:42.064Z,95923.00
2023-03-16T12:12:41.364Z,95915.00
2023-03-16T12:13:41.366Z,95909.00
2023-03-16T12:14:41.337Z,95911.00
2023-03-16T12:15:41.337Z,95909.00
2023-03-16T12:16:49.133Z,95907.00
2023-03-16T12:17:41.343Z,95903.00
2023-03-16T12:18:41.329Z,95900.00
2023-03-16T12:19:41.314Z,95898.00
2023-03-16T12:20:41.300Z,95898.00
2023-03-16T12:21:41.286Z,95890.00
2023-03-16T12:22:41.293Z,95890.00
2023-03-16T12:23:40.282Z,95892.00
2023-03-16T12:24:40.287Z,95888.00
2023-03-16T12:25:41.273Z,95888.00
2023-03-16T12:26:41.266Z,95882.00
2023-03-16T12:27:41.258Z,95884.00
2023-03-16T12:28:41.253Z,95880.00
2023-03-16T12:29:41.256Z,95880.00
2023-03-16T12:30:41.258Z,95878.00
2023-03-16T12:31:41.321Z,95876.00
2023-03-16T12:32:41.228Z,95876.00
2023-03-16T12:33:41.254Z,95876.00
2023-03-16T12:34:41.214Z,95870.00
2023-03-16T12:35:41.323Z,95872.00
2023-03-16T12:36:41.207Z,95866.00
2023-03-16T12:37:41.200Z,95868.00
2023-03-16T12:38:41.408Z,95868.00
2023-03-16T12:39:40.178Z,95866.00
2023-03-16T12:40:41.191Z,95862.00
2023-03-16T12:41:41.180Z,95862.00
2023-03-16T12:42:41.154Z,95862.00
2023-03-16T12:43:41.422Z,95864.00
2023-03-16T12:44:41.146Z,95858.00
2023-03-16T12:45:40.169Z,95860.00
2023-03-16T12:46:41.867Z,95858.00
2023-03-16T12:47:41.111Z,95856.00
2023-03-16T12:48:41.142Z,95860.00
2023-03-16T12:49:41.129Z,95858.00
2023-03-16T12:50:41.104Z,95858.00
2023-03-16T12:51:41.086Z,95853.00
2023-03-16T12:52:41.156Z,95856.00
2023-03-16T12:53:40.102Z,95853.00
2023-03-16T12:54:40.073Z,95851.00
2023-03-16T12:55:41.071Z,95849.00
2023-03-16T12:56:40.057Z,95849.00
2023-03-16T12:57:41.059Z,95849.00
2023-03-16T12:58:41.044Z,95849.00
2023-03-16T12:59:41.047Z,95843.00
2023-03-16T13:00:41.101Z,95847.00
2023-03-16T13:01:41.034Z,95845.00
2023-03-16T13:02:40.027Z,95843.00
2023-03-16T13:03:41.039Z,95843.00
2023-03-16T13:04:41.054Z,95843.00
2023-03-16T13:05:41.042Z,95839.00
2023-03-16T13:06:41.005Z,95841.00
2023-03-16T13:07:41.001Z,95839.00
2023-03-16T13:08:41.001Z,95837.00
2023-03-16T13:09:40.989Z,95835.00
2023-03-16T13:10:40.970Z,95835.00
2023-03-16T13:11:39.991Z,95833.00
2023-03-16T13:12:41.023Z,95835.00
2023-03-16T13:13:41.056Z,95833.00
2023-03-16T13:14:41.077Z,95833.00
2023-03-16T13:15:41.101Z,95831.00
2023-03-16T13:16:41.257Z,95831.00
2023-03-16T13:17:41.251Z,95831.00
2023-03-16T13:18:41.200Z,95829.00
2023-03-16T13:19:41.266Z,95833.00
2023-03-16T13:20:41.267Z,95829.00
2023-03-16T13:21:40.301Z,95827.00
2023-03-16T13:22:40.320Z,95827.00
2023-03-16T13:23:41.363Z,95831.00
2023-03-16T13:24:41.385Z,95827.00
2023-03-16T13:25:41.420Z,95827.00
2023-03-16T13:26:41.461Z,95825.00
2023-03-16T13:27:40.480Z,95823.00
2023-03-16T13:28:41.536Z,95823.00
2023-03-16T13:29:40.553Z,95821.00
2023-03-16T13:30:40.630Z,95821.00
2023-03-16T13:31:41.733Z,95819.00
2023-03-16T13:32:41.686Z,95821.00
2023-03-16T13:33:41.663Z,95821.00
2023-03-16T13:34:40.690Z,95821.00
2023-03-16T13:35:41.794Z,95821.00
2023-03-16T13:36:41.770Z,95819.00
2023-03-16T13:37:41.842Z,95817.00
2023-03-16T13:38:40.796Z,95815.00
2023-03-16T13:39:41.824Z,95815.00
2023-03-16T13:40:41.849Z,95813.00
2023-03-16T13:41:43.518Z,95811.00
2023-03-16T13:42:42.145Z,95811.00
2023-03-16T13:43:42.157Z,95807.00
2023-03-16T13:44:42.169Z,95807.00
2023-03-16T13:45:42.356Z,95807.00
2023-03-16T13:46:42.271Z,95805.00
2023-03-16T13:47:42.283Z,95799.00
2023-03-16T13:48:42.328Z,95799.00
2023-03-16T13:49:42.357Z,95799.00
2023-03-16T13:50:42.410Z,95798.00
2023-03-16T13:51:41.434Z,95798.00
2023-03-16T13:52:41.468Z,95796.00
2023-03-16T13:53:42.569Z,95794.00
2023-03-16T13:54:42.557Z,95796.00
2023-03-16T13:55:42.581Z,95796.00
2023-03-16T13:56:42.615Z,95798.00
2023-03-16T13:57:42.680Z,95798.00
2023-03-16T13:58:42.734Z,95798.00
2023-03-16T13:59:42.746Z,95798.00
2023-03-16T14:00:42.792Z,95801.00
2023-03-16T14:01:42.884Z,95799.00
2023-03-16T14:02:42.959Z,95801.00
2023-03-16T14:03:42.990Z,95801.00
2023-03-16T14:04:43.521Z,95803.00
2023-03-16T14:05:43.028Z,95799.00
2023-03-16T14:06:43.052Z,95799.00
2023-03-16T14:07:43.102Z,95798.00
2023-03-16T14:08:43.155Z,95798.00
2023-03-16T14:09:43.216Z,95799.00
2023-03-16T14:10:42.244Z,95801.00
2023-03-16T14:11:43.282Z,95801.00
2023-03-16T14:12:43.330Z,95798.00
2023-03-16T14:13:42.369Z,95799.00
2023-03-16T14:14:43.419Z,95798.00
2023-03-16T14:15:43.466Z,95801.00
2023-03-16T14:16:43.512Z,95801.00
2023-03-16T14:17:43.576Z,95801.00
2023-03-16T14:18:43.634Z,95798.00
2023-03-16T14:19:43.649Z,95799.00
2023-03-16T14:20:43.698Z,95799.00
2023-03-16T14:21:43.755Z,95799.00
2023-03-16T14:22:43.810Z,95796.00
2023-03-16T14:23:43.857Z,95796.00
2023-03-16T14:27:44.032Z,95796.00
2023-03-16T14:33:43.310Z,95790.00
2023-03-16T14:38:44.506Z,95792.00
2023-03-16T14:39:44.597Z,95788.00
2023-03-16T14:51:44.201Z,95774.00
2023-03-16T14:53:44.299Z,95772.00
2023-03-16T14:54:45.373Z,95776.00
2023-03-16T14:55:45.410Z,95772.00
2023-03-16T14:58:45.595Z,95772.00
2023-03-16T15:55:48.516Z,95766.00
2023-03-16T15:56:54.278Z,95770.00
2023-03-16T15:57:48.554Z,95768.00
2023-03-16T15:58:48.528Z,95768.00
2023-03-16T15:59:48.534Z,95766.00
2023-03-16T16:00:48.670Z,95768.00
2023-03-16T16:01:48.571Z,95764.00
2023-03-16T16:04:48.515Z,95766.00
2023-03-16T16:30:54.828Z,95788.00
2023-03-16T16:31:48.397Z,95788.00
2023-03-16T16:32:48.359Z,95784.00
2023-03-16T16:33:47.290Z,95780.00
2023-03-16T16:35:01.907Z,95780.00
2023-03-16T16:35:48.421Z,95782.00
2023-03-16T16:36:48.279Z,95782.00
2023-03-16T16:37:47.291Z,95780.00
2023-03-16T16:38:48.267Z,95780.00
2023-03-16T16:39:48.252Z,95782.00
2023-03-16T16:40:48.240Z,95782.00
2023-03-16T16:41:47.233Z,95780.00
2023-03-16T16:42:48.236Z,95782.00
2023-03-16T16:43:47.219Z,95782.00
2023-03-16T16:44:48.235Z,95782.00
2023-03-16T16:45:48.309Z,95784.00
2023-03-16T16:46:48.207Z,95784.00
2023-03-16T16:47:48.198Z,95780.00
2023-03-16T16:48:48.228Z,95782.00
2023-03-16T16:49:47.184Z,95780.00
2023-03-16T16:50:48.195Z,95782.00
2023-03-16T16:51:48.193Z,95784.00
2023-03-16T16:52:47.175Z,95784.00
2023-03-16T16:53:47.185Z,95782.00
2023-03-16T16:54:48.160Z,95782.00
2023-03-16T16:55:48.150Z,95784.00
2023-03-16T16:56:48.149Z,95788.00
2023-03-16T16:57:48.150Z,95784.00
2023-03-16T16:58:48.152Z,95786.00
2023-03-16T16:59:47.122Z,95780.00
2023-03-16T17:00:47.145Z,95786.00
2023-03-16T17:01:48.110Z,95780.00
2023-03-16T17:02:48.119Z,95782.00
2023-03-16T17:03:47.088Z,95782.00
2023-03-16T17:04:48.208Z,95784.00
2023-03-16T17:05:48.086Z,95782.00
2023-03-16T17:06:48.090Z,95788.00
2023-03-16T17:07:48.095Z,95788.00
2023-03-16T17:08:48.076Z,95784.00
2023-03-16T17:09:48.066Z,95788.00
2023-03-16T17:10:48.048Z,95786.00
2023-03-16T17:11:47.053Z,95788.00
2023-03-16T17:12:48.043Z,95788.00
2023-03-16T17:13:48.027Z,95792.00
2023-03-16T17:14:48.043Z,95788.00
2023-03-16T17:15:48.032Z,95790.00
2023-03-16T17:16:48.113Z,95794.00
2023-03-16T17:17:48.005Z,95788.00
2023-03-16T17:18:48.010Z,95792.00
2023-03-16T17:19:47.990Z,95790.00
2023-03-16T17:20:47.017Z,95790.00
2023-03-16T17:21:47.986Z,95792.00
2023-03-16T17:22:47.985Z,95796.00
2023-03-16T17:23:47.971Z,95794.00
2023-03-16T17:24:46.966Z,95794.00
2023-03-16T17:25:47.957Z,95794.00
2023-03-16T17:26:47.967Z,95798.00
2023-03-16T17:27:47.992Z,95799.00
2023-03-16T17:28:47.969Z,95801.00
2023-03-16T17:29:47.021Z,95803.00
2023-03-16T17:30:48.137Z,95807.00
2023-03-16T17:31:48.116Z,95807.00
2023-03-16T17:32:48.169Z,95811.00
2023-03-16T17:33:48.189Z,95815.00
2023-03-16T17:34:48.261Z,95813.00
2023-03-16T17:35:48.368Z,95813.00
2023-03-16T17:36:48.340Z,95813.00
2023-03-16T17:37:47.384Z,95807.00
2023-03-16T17:38:48.426Z,95807.00
2023-03-16T17:39:48.501Z,95809.00
2023-03-16T17:40:48.526Z,95807.00
2023-03-16T17:41:48.585Z,95809.00
2023-03-16T17:42:48.619Z,95809.00
2023-03-16T17:43:47.684Z,95811.00
2023-03-16T17:44:48.765Z,95813.00
2023-03-16T17:45:47.798Z,95813.00
2023-03-16T17:46:48.897Z,95813.00
2023-03-16T17:47:48.883Z,95811.00
2023-03-16T17:48:48.945Z,95815.00
2023-03-16T17:49:49.231Z,95817.00
2023-03-16T17:50:49.029Z,95819.00
2023-03-16T17:51:48.126Z,95819.00
2023-03-16T17:52:49.133Z,95821.00
2023-03-16T17:53:49.200Z,95823.00
2023-03-16T17:54:49.281Z,95823.00
2023-03-16T17:55:49.290Z,95827.00
2023-03-16T17:56:49.355Z,95827.00
2023-03-16T17:57:48.397Z,95831.00
2023-03-16T17:58:49.994Z,95829.00
2023-03-16T17:59:48.503Z,95831.00
2023-03-16T18:00:49.594Z,95831.00
2023-03-16T18:01:49.720Z,95831.00
2023-03-16T18:02:49.691Z,95835.00
2023-03-16T18:03:49.774Z,95835.00
2023-03-16T18:04:49.799Z,95839.00
2023-03-16T18:05:49.848Z,95841.00
2023-03-16T18:06:49.952Z,95845.00
2023-03-16T18:07:49.951Z,95847.00
2023-03-16T18:08:50.010Z,95845.00
2023-03-16T18:09:50.065Z,95849.00
2023-03-16T18:10:50.142Z,95849.00
2023-03-16T18:11:50.177Z,95853.00
2023-03-16T18:12:50.243Z,95849.00
2023-03-16T18:13:50.317Z,95851.00
2023-03-16T18:14:50.351Z,95851.00
2023-03-16T18:15:50.488Z,95851.00
2023-03-16T18:16:49.489Z,95849.00
2023-03-16T18:17:50.535Z,95849.00
2023-03-16T18:18:50.614Z,95849.00
2023-03-16T18:19:49.661Z,95847.00
2023-03-16T18:20:50.741Z,95843.00
2023-03-16T18:21:50.788Z,95841.00
2023-03-16T18:22:50.918Z,95841.00
2023-03-16T18:23:49.920Z,95841.00
2023-03-16T18:24:50.980Z,95841.00
2023-03-16T18:25:51.070Z,95845.00
2023-03-16T18:26:51.115Z,95845.00
2023-03-16T18:27:50.233Z,95847.00
2023-03-16T18:28:51.243Z,95845.00
2023-03-16T18:29:51.304Z,95849.00
2023-03-16T18:30:51.380Z,95849.00
2023-03-16T18:31:51.466Z,95851.00
2023-03-16T18:32:51.575Z,95851.00
2023-03-16T18:33:51.597Z,95853.00
2023-03-16T18:34:51.670Z,95854.00
2023-03-16T18:35:50.723Z,95854.00
2023-03-16T18:36:51.751Z,95854.00
2023-03-16T18:37:51.829Z,95856.00
2023-03-16T18:38:51.904Z,95856.00
2023-03-16T18:39:50.959Z,95858.00
2023-03-16T18:40:51.018Z,95856.00
2023-03-16T18:41:52.145Z,95858.00
2023-03-16T18:42:52.137Z,95860.00
2023-03-16T18:43:52.194Z,95860.00
2023-03-16T18:44:52.257Z,95862.00
2023-03-16T18:45:54.748Z,95864.00
2023-03-16T18:46:51.363Z,95864.00
2023-03-16T18:47:52.318Z,95862.00
2023-03-16T18:48:52.298Z,95864.00
2023-03-16T18:49:51.300Z,95868.00
2023-03-16T18:50:52.297Z,95870.00
2023-03-16T18:51:52.299Z,95872.00
2023-03-16T18:52:51.273Z,95874.00
2023-03-16T18:53:52.299Z,95870.00
2023-03-16T18:54:51.286Z,95870.00
2023-03-16T18:55:52.261Z,95872.00
2023-03-16T18:56:52.244Z,95872.00
2023-03-16T18:57:52.246Z,95870.00
2023-03-16T18:58:52.235Z,95872.00
2023-03-16T18:59:51.232Z,95872.00
2023-03-16T19:00:51.252Z,95870.00
2023-03-16T19:01:51.262Z,95870.00
2023-03-16T19:02:52.194Z,95870.00
2023-03-16T19:03:52.199Z,95870.00
2023-03-16T19:04:52.192Z,95870.00
2023-03-16T19:05:51.198Z,95868.00
2023-03-16T19:06:52.176Z,95868.00
2023-03-16T19:07:52.171Z,95870.00
2023-03-16T19:08:52.172Z,95870.00
2023-03-16T19:09:52.192Z,95868.00
2023-03-16T19:10:52.190Z,95870.00
2023-03-16T19:11:51.157Z,95870.00
2023-03-16T19:12:52.148Z,95870.00
2023-03-16T19:13:53.124Z,95872.00
2023-03-16T19:14:52.134Z,95874.00
2023-03-16T19:15:52.146Z,95874.00
2023-03-16T19:16:52.135Z,95876.00
2023-03-16T19:17:51.130Z,95876.00
2023-03-16T19:18:52.115Z,95876.00
2023-03-16T19:19:51.102Z,95876.00
2023-03-16T19:20:52.106Z,95878.00
2023-03-16T19:21:52.081Z,95880.00
2023-03-16T19:22:52.096Z,95878.00
2023-03-16T19:23:52.069Z,95880.00
2023-03-16T19:24:52.092Z,95882.00
2023-03-16T19:25:51.046Z,95884.00
2023-03-16T19:26:52.072Z,95882.00
2023-03-16T19:27:52.032Z,95886.00
2023-03-16T19:28:52.044Z,95884.00
2023-03-16T19:29:52.409Z,95886.00
2023-03-16T19:30:52.024Z,95888.00
2023-03-16T19:31:52.186Z,95886.00
2023-03-16T19:32:52.043Z,95886.00
2023-03-16T19:33:51.991Z,95884.00
2023-03-16T19:34:51.988Z,95884.00
2023-03-16T19:35:52.549Z,95882.00
2023-03-16T19:36:51.987Z,95884.00
2023-03-16T19:37:51.959Z,95884.00
2023-03-16T19:38:51.968Z,95884.00
2023-03-16T19:39:51.963Z,95886.00
2023-03-16T19:40:51.946Z,95884.00
2023-03-16T19:41:51.941Z,95884.00
2023-03-16T19:42:51.960Z,95888.00
2023-03-16T19:43:51.916Z,95886.00
2023-03-16T19:44:50.935Z,95888.00
2023-03-16T19:45:51.011Z,95890.00
2023-03-16T19:46:51.937Z,95886.00
2023-03-16T19:47:51.949Z,95890.00
2023-03-16T19:48:51.895Z,95892.00
2023-03-16T19:49:51.899Z,95894.00
2023-03-16T19:50:51.883Z,95892.00
2023-03-16T19:51:51.872Z,95894.00
2023-03-16T19:52:51.877Z,95892.00
2023-03-16T19:53:51.897Z,95894.00
2023-03-16T19:54:51.843Z,95894.00
2023-03-16T19:55:51.914Z,95894.00
2023-03-16T19:56:51.840Z,95894.00
2023-03-16T19:57:51.834Z,95894.00
2023-03-16T19:58:51.878Z,95890.00
2023-03-16T19:59:50.823Z,95888.00
2023-03-16T20:00:51.893Z,95892.00
2023-03-16T20:01:51.803Z,95894.00
2023-03-16T20:02:51.791Z,95892.00
2023-03-16T20:03:51.858Z,95896.00
2023-03-16T20:04:50.768Z,95896.00
2023-03-16T20:05:50.763Z,95896.00
2023-03-16T20:06:50.783Z,95896.00
2023-03-16T20:07:51.764Z,95898.00
2023-03-16T20:08:51.764Z,95898.00
2023-03-16T20:09:50.780Z,95901.00
2023-03-16T20:10:51.730Z,95900.00
2023-03-16T20:11:51.756Z,95901.00
2023-03-16T20:12:51.715Z,95901.00
2023-03-16T20:13:50.728Z,95903.00
2023-03-16T20:14:51.740Z,95901.00
2023-03-16T20:15:51.690Z,95901.00
2023-03-16T20:16:51.806Z,95900.00
2023-03-16T20:17:51.692Z,95896.00
2023-03-16T20:18:51.677Z,95898.00
2023-03-16T20:19:51.665Z,95898.00
2023-03-16T20:20:51.663Z,95896.00
2023-03-16T20:21:51.685Z,95896.00
2023-03-16T20:22:51.696Z,95894.00
2023-03-16T20:23:51.715Z,95894.00
2023-03-16T20:24:51.747Z,95894.00
2023-03-16T20:25:50.763Z,95892.00
2023-03-16T20:26:51.810Z,95894.00
2023-03-16T20:27:51.811Z,95896.00
2023-03-16T20:28:51.841Z,95896.00
2023-03-16T20:29:50.868Z,95894.00
2023-03-16T20:30:51.928Z,95894.00
2023-03-16T20:31:51.912Z,95896.00
2023-03-16T20:32:52.027Z,95896.00
2023-03-16T20:33:50.957Z,95894.00
2023-03-16T20:34:51.978Z,95896.00
2023-03-16T20:35:52.014Z,95898.00
2023-03-16T20:36:52.064Z,95898.00
2023-03-16T20:37:51.051Z,95901.00
2023-03-16T20:38:52.090Z,95905.00
2023-03-16T20:39:51.115Z,95907.00
2023-03-16T20:40:51.188Z,95909.00
2023-03-16T20:41:52.182Z,95909.00
2023-03-16T20:42:52.222Z,95909.00
2023-03-16T20:43:52.197Z,95909.00
2023-03-16T20:44:52.240Z,95909.00
2023-03-16T20:45:52.319Z,95909.00
2023-03-16T20:46:52.316Z,95911.00
2023-03-16T20:47:51.301Z,95911.00
2023-03-16T20:48:51.314Z,95907.00
2023-03-16T20:49:51.349Z,95905.00
2023-03-16T20:50:52.381Z,95903.00
2023-03-16T20:51:52.425Z,95903.00
2023-03-16T20:52:51.441Z,95903.00
2023-03-16T20:53:52.469Z,95901.00
2023-03-16T20:54:52.511Z,95901.00
2023-03-16T20:55:52.627Z,95905.00
2023-03-16T20:56:51.580Z,95911.00
2023-03-16T20:57:52.600Z,95913.00
2023-03-16T20:58:52.655Z,95915.00
2023-03-16T20:59:51.672Z,95923.00
2023-03-16T21:00:52.696Z,95927.00
2023-03-16T21:01:52.774Z,95927.00
2023-03-16T21:02:52.790Z,95925.00
2023-03-16T21:03:52.789Z,95925.00
2023-03-16T21:04:53.040Z,95927.00
2023-03-16T21:05:51.875Z,95927.00
2023-03-16T21:06:51.920Z,95927.00
2023-03-16T21:07:52.962Z,95927.00
2023-03-16T21:08:52.013Z,95925.00
2023-03-16T21:09:53.081Z,95923.00
2023-03-16T21:10:52.066Z,95915.00
2023-03-16T21:11:53.122Z,95915.00
2023-03-16T21:12:52.153Z,95923.00
2023-03-16T21:13:53.199Z,95913.00
2023-03-16T21:14:53.231Z,95915.00
2023-03-16T21:15:53.336Z,95923.00
2023-03-16T21:16:53.322Z,95923.00
2023-03-16T21:17:53.363Z,95923.00
2023-03-16T21:18:52.457Z,95915.00
2023-03-16T21:19:53.477Z,95925.00
2023-03-16T21:20:53.501Z,95925.00
2023-03-16T21:21:53.537Z,95923.00
2023-03-16T21:22:53.592Z,95927.00
2023-03-16T21:23:53.644Z,95927.00
2023-03-16T21:24:53.679Z,95927.00
2023-03-16T21:25:53.757Z,95925.00
2023-03-16T21:26:53.784Z,95929.00
2023-03-16T21:27:53.837Z,95929.00
2023-03-16T21:28:52.890Z,95927.00
2023-03-16T21:29:53.931Z,95927.00
2023-03-16T21:30:54.088Z,95927.00
2023-03-16T21:31:53.061Z,95929.00
2023-03-16T21:32:54.244Z,95927.00
2023-03-16T21:33:54.183Z,95929.00
2023-03-16T21:34:53.218Z,95927.00